Shinkyouwa Maru — JG5692 — position and weather

sailwx.info

Track history (hours):
 
Tides and Currents Weather Stations Pressure Air Temp Water Temp Dewpoint Dewpoint Depression Visibility Wind Speed Wind Dir Waves Ship Positions

Shinkyouwa Maru

Last reported at 2018-Feb-17 09:33 UTC. Time now 2018-Feb-20 13:33 UTC.
Position N 41°09' E 141°34'.

Length 104 m; draft 5.1 m.

Type: Tanker. MMSI: 431101018.

Date/timePositionNaut miles runAvg speedWind from/ knotsBaromVisibWave heightAir tempDewpointWater temp
2018-Feb-17 09:33N 41°09' E 141°34'214.1
2018-Feb-17 09:26N 41°11' E 141°33'1414.0
2018-Feb-17 08:27N 41°24' E 141°31'614.0
2018-Feb-17 08:01N 41°29' E 141°26'815.0
2018-Feb-17 07:30N 41°34' E 141°18'611.7
2018-Feb-17 06:59N 41°40' E 141°17'612.9
2018-Feb-17 06:30N 41°46' E 141°16'409 8.7
2018-Feb-15 07:13N 34°59' E 140°13'314.4
2018-Feb-15 06:59N 34°58' E 140°09'2211.1
2018-Feb-15 05:02N 34°59' E 139°43'114.1
2018-Feb-15 04:59N 34°59' E 139°43'714.1
2018-Feb-15 04:31N 35°06' E 139°44'714.2
2018-Feb-15 04:00N 35°13' E 139°47'611.8
2018-Feb-15 03:31N 35°18' E 139°44'612.5
2018-Feb-15 03:01N 35°25' E 139°43'714.4
2018-Feb-15 02:30N 35°29' E 139°50'611.8
2018-Feb-15 02:00N 35°35' E 139°53'0 0.2
2018-Feb-15 01:28N 35°35' E 139°53'0 0.0
2018-Feb-15 00:58N 35°35' E 139°53'0 0.0
2018-Feb-15 00:28N 35°35' E 139°53'0 0.0
2018-Feb-14 23:55N 35°35' E 139°53'0 0.0
2018-Feb-14 23:28N 35°35' E 139°53'0 0.1
2018-Feb-14 22:58N 35°35' E 139°53'0 0.0
2018-Feb-14 22:28N 35°35' E 139°53'0 0.0
2018-Feb-14 21:58N 35°35' E 139°53'0 0.1
2018-Feb-14 20:55N 35°35' E 139°53'0 0.0
2018-Feb-14 20:19N 35°35' E 139°53'0 0.0
2018-Feb-14 19:55N 35°35' E 139°53'0 0.0
2018-Feb-14 19:25N 35°35' E 139°53'0 0.0
2018-Feb-14 18:54N 35°35' E 139°53'0 0.0
2018-Feb-14 18:28N 35°35' E 139°53'0 0.0
2018-Feb-14 17:55N 35°35' E 139°53'0 0.0
2018-Feb-14 17:28N 35°35' E 139°53'0 0.0
2018-Feb-14 16:43N 35°35' E 139°53'0 0.0
2018-Feb-14 16:25N 35°35' E 139°53'0 0.0
2018-Feb-14 15:48N 35°35' E 139°53'0 0.0
2018-Feb-14 15:25N 35°35' E 139°53'0 0.0
2018-Feb-14 14:49N 35°35' E 139°53'0 0.0
2018-Feb-14 14:12N 35°35' E 139°53'0 0.0
2018-Feb-14 13:58N 35°35' E 139°53'0 0.0
2018-Feb-14 13:16N 35°35' E 139°53'0 0.0
2018-Feb-14 13:00N 35°35' E 139°53'0 0.0
2018-Feb-14 12:30N 35°35' E 139°53'0 0.0
2018-Feb-14 11:49N 35°35' E 139°53'0 0.0
2018-Feb-14 10:04N 35°35' E 139°53'0 0.9
2018-Feb-14 10:00N 35°35' E 139°53'4 8.8
2018-Feb-14 09:30N 35°33' E 139°58'4 9.0
2018-Feb-14 09:00N 35°32' E 140°03'0 0.0
2018-Feb-14 05:11N 35°32' E 140°03'0 0.3
2018-Feb-14 05:01N 35°32' E 140°03'1 2.3
2018-Feb-14 04:31N 35°32' E 140°02'612.9
2018-Feb-14 04:00N 35°30' E 139°55'815.5
2018-Feb-14 03:31N 35°25' E 139°47'713.6
2018-Feb-14 03:01N 35°19' E 139°44'612.8
2018-Feb-14 02:31N 35°13' E 139°47'815.0
2018-Feb-14 02:00N 35°05' E 139°46'1313.1
2018-Feb-14 01:02N 34°53' E 139°48'011.7
2018-Feb-14 01:00N 34°53' E 139°48'914.0
2018-Feb-14 00:21N 34°54' E 139°59'714.5
2018-Feb-13 23:53N 34°57' E 140°06'514.5
2018-Feb-13 23:30N 35°00' E 140°12'  
2018-Feb-10 04:58N 41°24' E 141°33'714.3
2018-Feb-10 04:30N 41°29' E 141°27'815.6
2018-Feb-10 04:00N 41°31' E 141°17'816.1
2018-Feb-10 03:31N 41°33' E 141°07'815.5
2018-Feb-10 03:00N 41°36' E 140°57'714.7
2018-Feb-10 02:31N 41°34' E 140°48'815.8
2018-Feb-10 02:01N 41°30' E 140°38'816.1
2018-Feb-10 01:29N 41°27' E 140°28'1815.0
2018-Feb-10 00:18N 41°21' E 140°05'1213.4
2018-Feb-09 23:24N 41°30' E 139°54'1114.3
2018-Feb-09 22:37N 41°41' E 139°50'11 0.3
2018-Feb-08 13:30N 41°52' E 139°49'34 7.6
2018-Feb-08 09:00N 41°28' E 140°22'612.1
2018-Feb-08 08:30N 41°32' E 140°28'20 2.8
2018-Feb-08 01:29N 41°49' E 140°42'0 0.0
2018-Feb-08 00:59N 41°49' E 140°42'0 0.0
2018-Feb-08 00:29N 41°49' E 140°42'0 0.0
2018-Feb-07 23:39N 41°49' E 140°42'0 0.2
2018-Feb-07 23:29N 41°49' E 140°42'1 2.5
2018-Feb-07 23:00N 41°48' E 140°41'2 4.6
2018-Feb-07 22:30N 41°46' E 140°39'612.9
2018-Feb-07 22:00N 41°40' E 140°36'613.1
2018-Feb-07 21:31N 41°34' E 140°33'  
Track history (hours):
 
Tides and Currents Weather Stations Pressure Air Temp Water Temp Dewpoint Dewpoint Depression Visibility Wind Speed Wind Dir Waves Ship Positions

Shinkyouwa Maru

Last reported at 2018-Feb-17 09:33 UTC. Time now 2018-Feb-20 13:33 UTC.
Position N 41°09' E 141°34'.

Length 104 m; draft 5.1 m.

Type: Tanker. MMSI: 431101018.

Date/timePositionNaut miles runAvg speedWind from/ knotsBaromVisibWave heightAir tempDewpointWater temp
2018-Feb-17 09:33N 41°09' E 141°34'214.1
2018-Feb-17 09:26N 41°11' E 141°33'1414.0
2018-Feb-17 08:27N 41°24' E 141°31'614.0
2018-Feb-17 08:01N 41°29' E 141°26'815.0
2018-Feb-17 07:30N 41°34' E 141°18'611.7
2018-Feb-17 06:59N 41°40' E 141°17'612.9
2018-Feb-17 06:30N 41°46' E 141°16'409 8.7
2018-Feb-15 07:13N 34°59' E 140°13'314.4
2018-Feb-15 06:59N 34°58' E 140°09'2211.1
2018-Feb-15 05:02N 34°59' E 139°43'114.1
2018-Feb-15 04:59N 34°59' E 139°43'714.1
2018-Feb-15 04:31N 35°06' E 139°44'714.2
2018-Feb-15 04:00N 35°13' E 139°47'611.8
2018-Feb-15 03:31N 35°18' E 139°44'612.5
2018-Feb-15 03:01N 35°25' E 139°43'714.4
2018-Feb-15 02:30N 35°29' E 139°50'611.8
2018-Feb-15 02:00N 35°35' E 139°53'0 0.2
2018-Feb-15 01:28N 35°35' E 139°53'0 0.0
2018-Feb-15 00:58N 35°35' E 139°53'0 0.0
2018-Feb-15 00:28N 35°35' E 139°53'0 0.0
2018-Feb-14 23:55N 35°35' E 139°53'0 0.0
2018-Feb-14 23:28N 35°35' E 139°53'0 0.1
2018-Feb-14 22:58N 35°35' E 139°53'0 0.0
2018-Feb-14 22:28N 35°35' E 139°53'0 0.0
2018-Feb-14 21:58N 35°35' E 139°53'0 0.1
2018-Feb-14 20:55N 35°35' E 139°53'0 0.0
2018-Feb-14 20:19N 35°35' E 139°53'0 0.0
2018-Feb-14 19:55N 35°35' E 139°53'0 0.0
2018-Feb-14 19:25N 35°35' E 139°53'0 0.0
2018-Feb-14 18:54N 35°35' E 139°53'0 0.0
2018-Feb-14 18:28N 35°35' E 139°53'0 0.0
2018-Feb-14 17:55N 35°35' E 139°53'0 0.0
2018-Feb-14 17:28N 35°35' E 139°53'0 0.0
2018-Feb-14 16:43N 35°35' E 139°53'0 0.0
2018-Feb-14 16:25N 35°35' E 139°53'0 0.0
2018-Feb-14 15:48N 35°35' E 139°53'0 0.0
2018-Feb-14 15:25N 35°35' E 139°53'0 0.0
2018-Feb-14 14:49N 35°35' E 139°53'0 0.0
2018-Feb-14 14:12N 35°35' E 139°53'0 0.0
2018-Feb-14 13:58N 35°35' E 139°53'0 0.0
2018-Feb-14 13:16N 35°35' E 139°53'0 0.0
2018-Feb-14 13:00N 35°35' E 139°53'0 0.0
2018-Feb-14 12:30N 35°35' E 139°53'0 0.0
2018-Feb-14 11:49N 35°35' E 139°53'0 0.0
2018-Feb-14 10:04N 35°35' E 139°53'0 0.9
2018-Feb-14 10:00N 35°35' E 139°53'4 8.8
2018-Feb-14 09:30N 35°33' E 139°58'4 9.0
2018-Feb-14 09:00N 35°32' E 140°03'0 0.0
2018-Feb-14 05:11N 35°32' E 140°03'0 0.3
2018-Feb-14 05:01N 35°32' E 140°03'1 2.3
2018-Feb-14 04:31N 35°32' E 140°02'612.9
2018-Feb-14 04:00N 35°30' E 139°55'815.5
2018-Feb-14 03:31N 35°25' E 139°47'713.6
2018-Feb-14 03:01N 35°19' E 139°44'612.8
2018-Feb-14 02:31N 35°13' E 139°47'815.0
2018-Feb-14 02:00N 35°05' E 139°46'1313.1
2018-Feb-14 01:02N 34°53' E 139°48'011.7
2018-Feb-14 01:00N 34°53' E 139°48'914.0
2018-Feb-14 00:21N 34°54' E 139°59'714.5
2018-Feb-13 23:53N 34°57' E 140°06'514.5
2018-Feb-13 23:30N 35°00' E 140°12'  
2018-Feb-10 04:58N 41°24' E 141°33'714.3
2018-Feb-10 04:30N 41°29' E 141°27'815.6
2018-Feb-10 04:00N 41°31' E 141°17'816.1
2018-Feb-10 03:31N 41°33' E 141°07'815.5
2018-Feb-10 03:00N 41°36' E 140°57'714.7
2018-Feb-10 02:31N 41°34' E 140°48'815.8
2018-Feb-10 02:01N 41°30' E 140°38'816.1
2018-Feb-10 01:29N 41°27' E 140°28'1815.0
2018-Feb-10 00:18N 41°21' E 140°05'1213.4
2018-Feb-09 23:24N 41°30' E 139°54'1114.3
2018-Feb-09 22:37N 41°41' E 139°50'11 0.3
2018-Feb-08 13:30N 41°52' E 139°49'34 7.6
2018-Feb-08 09:00N 41°28' E 140°22'612.1
2018-Feb-08 08:30N 41°32' E 140°28'20 2.8
2018-Feb-08 01:29N 41°49' E 140°42'0 0.0
2018-Feb-08 00:59N 41°49' E 140°42'0 0.0
2018-Feb-08 00:29N 41°49' E 140°42'0 0.0
2018-Feb-07 23:39N 41°49' E 140°42'0 0.2
2018-Feb-07 23:29N 41°49' E 140°42'1 2.5
2018-Feb-07 23:00N 41°48' E 140°41'2 4.6
2018-Feb-07 22:30N 41°46' E 140°39'612.9
2018-Feb-07 22:00N 41°40' E 140°36'613.1
2018-Feb-07 21:31N 41°34' E 140°33'  

Dump ship's entire track history